Home PIREPS Pireps

Flight BEL2805A

  • Submitted By: John Littleford
  • Departure Airport: Bruxelles National (EBBR)
  • Arrival Airport: barcelona airport (LEBL)
  • Aircraft: A319-112 (OO-SSG)
  • Flight Time: 02.06
  • Date Submitted: 12/02/2018
  • Status: Accepted
Flight Details
Gross Revenue:
(122 load / € 146.00 per unit
€ 17,812.00
Fuel Cost:
(8834 fuel used @ 5.1 / unit)
€ 45,053.40

Additional Log Information:

View Log

Aircraft Used in flight is Airbus A321 Paint2
19:54 Brakes are On
19:55 Brakes are Released
20:05 You Took off @ 124 Knots and Flaps at Position 0
Departure Weather
EBBR 121950Z 21007KT CAVOK 01/M03 Q1016 NOSIGrn
20:05 Stalling
20:05 Recovered from Stall
20:05 You exceeded maximum bank angle
20:05 You Landed @ 29 Knots and with -2400 Vertical Speed
Arrival Weather
LEBL 121938Z 35009KT 310V040 7000 RA FEW010 SCT016 BKN022 03/02 Q1019 NOSIGrn
20:05 Your Landing was very hard
20:05 Landing Gear Up @ 169 Knots and 410 Feet
20:08 Below 10000 feet you are not allowed to go over 250 knots
21:52 Landing Gear Down @ 185 Knots and 1840 Feet
22:00 Brakes are On
22:00 Brussels Bel-Track1.0.1.2

Route Map

Corporate About Us Our Team Vacancies Information Fleet Route Network Rules and Regulations Operations Flight Schedules Event Center Tours Partners IVAO Vatsim Acars dev FSCB

fb Users Online No pilots online!
0 Pilot(s) and 129 Guest(s) Online
CMS by phpVMS - Design by Crazycreatives.com - Copyright © 2018 - Brussels Airlines Virtual